logo
Rechercher aéroport 
image banner adimage banner adimage banner ad
image banner ad

VT57 - Malletts Head

Situé à Colchester, United States

ICAO - VT57, IATA -

Données fournies par Airmate  

Information générale

Coordonnées: N44°33'38" W73°14'25"
Élévation : 95 feet MSL.
Variation magnétique : -15° East
Voir autres Aéroports à Vermont

Données opérationnelles

Special qualification required
Heure actuelle UTC:
Heure actuelle locale:
TAF: KBTV 171120Z 1712/1812 19011G23KT P6SM SCT130 BKN170 FM171400 19011G23KT P6SM VCSH SCT040 BKN080 BKN150 FM171700 19014G24KT P6SM BKN200 FM172100 19009KT P6SM SCT160
Voir NOTAMs / SUP AIP / TFR affectant cet aéroport [VIEW]
Fréquences de communication: [VIEW]

Pistes:

Identifiant RWYQFULongueur (ft)Largeur (ft)SurfaceLDA (ft)
12W30002000WATER
30W30002000WATER

Coordonnées de l'aéroport

Adresse: Colchester United States

Vue satellite de VT57